New Brighton, Minnesota
Current Conditions -  °F | °C
As of 7:45 AM on Wednesday 28 Jan 2015 (Local Time) from KANE Reporting Station
Overcast Overcast  
Wind Chill: -6°   Ceiling: 800
Heat Index: -1°   Visibility: 7mi
Dew Point: -2°   Wind: 10mph
Humidity: 93%   Direction: 140°SE
Pressure: 29.99"   Gusts: NA
Location:  45.06°N, 93.19°W
Report Text: KANE 281345Z 14009KT 7SM OVC008 M01/M02 A2999
Loading
Personal Weather Stations






























Interactive Weather Map New forecast layout! Learn more

10-Day Weather Forecast

Advertisements
Track Severe Weather on mobile